createdAt,value
2022-09-24T00:00:51.123Z,4.11
2022-09-24T00:02:52.130Z,4.11
2022-09-24T00:06:55.270Z,4.11
2022-09-24T00:08:56.636Z,4.11
2022-09-24T00:10:58.268Z,4.11
2022-09-24T00:12:59.330Z,4.11
2022-09-24T00:17:03.096Z,4.11
2022-09-24T00:19:04.755Z,4.11
2022-09-24T00:21:06.411Z,4.11
2022-09-24T00:23:07.507Z,4.11
2022-09-24T00:25:09.225Z,4.1
2022-09-24T00:27:10.570Z,4.1
2022-09-24T00:29:12.428Z,4.11
2022-09-24T00:33:15.256Z,4.1
2022-09-24T00:35:16.834Z,4.1
2022-09-24T00:37:17.789Z,4.1
2022-09-24T00:39:19.584Z,4.1
2022-09-24T00:41:20.568Z,4.1
2022-09-24T00:43:22.399Z,4.1
2022-09-24T00:45:24.170Z,4.1
2022-09-24T00:49:26.842Z,4.1
2022-09-24T00:51:27.925Z,4.1
2022-09-24T00:53:29.173Z,4.1
2022-09-24T00:55:31.118Z,4.1
2022-09-24T00:59:34.328Z,4.1
2022-09-24T01:01:36.213Z,4.1
2022-09-24T01:05:39.292Z,4.1
2022-09-24T01:07:40.576Z,4.1
2022-09-24T01:09:41.850Z,4.1
2022-09-24T01:11:43.582Z,4.1
2022-09-24T01:15:47.115Z,4.1
2022-09-24T01:17:48.816Z,4.1
2022-09-24T01:19:49.958Z,4.1
2022-09-24T01:21:51.718Z,4.1
2022-09-24T01:23:53.148Z,4.1
2022-09-24T01:25:54.271Z,4.1
2022-09-24T01:27:56.051Z,4.1
2022-09-24T01:31:58.705Z,4.1
2022-09-24T01:33:59.702Z,4.1
2022-09-24T01:36:01.490Z,4.1
2022-09-24T01:38:03.289Z,4.1
2022-09-24T01:42:06.327Z,4.1
2022-09-24T01:44:08.015Z,4.1
2022-09-24T01:46:09.341Z,4.1
2022-09-24T01:48:10.576Z,4.1
2022-09-24T01:50:11.659Z,4.1
2022-09-24T01:52:12.748Z,4.09
2022-09-24T01:54:13.979Z,4.1
2022-09-24T01:58:16.787Z,4.09
2022-09-24T02:00:18.598Z,4.09
2022-09-24T02:02:20.654Z,4.09
2022-09-24T02:04:21.560Z,4.09
2022-09-24T02:06:22.906Z,4.09
2022-09-24T02:10:25.971Z,4.09
2022-09-24T02:14:28.973Z,4.09
2022-09-24T02:16:30.902Z,4.09
2022-09-24T02:18:31.939Z,4.09
2022-09-24T02:20:33.491Z,4.09
2022-09-24T02:22:34.831Z,4.08
2022-09-24T02:26:36.953Z,4.08
2022-09-24T02:30:40.078Z,4.09
2022-09-24T02:32:41.103Z,4.09
2022-09-24T02:34:42.116Z,4.09
2022-09-24T02:36:43.255Z,4.09
2022-09-24T02:38:44.489Z,4.08
2022-09-24T02:39:28.355Z,4.08
2022-09-24T02:41:30.199Z,4.09
2022-09-24T02:43:31.507Z,4.08
2022-09-24T02:45:33.141Z,4.09
2022-09-24T02:47:34.985Z,4.08
2022-09-24T02:51:38.735Z,4.08
2022-09-24T02:53:40.278Z,4.08
2022-09-24T02:55:42.218Z,4.08
2022-09-24T02:57:43.812Z,4.08
2022-09-24T02:59:45.777Z,4.08
2022-09-24T03:01:47.198Z,4.08
2022-09-24T03:03:48.711Z,4.08
2022-09-24T03:07:51.756Z,4.08
2022-09-24T03:09:53.236Z,4.08
2022-09-24T03:11:55.060Z,4.08
2022-09-24T03:13:56.342Z,4.08
2022-09-24T03:17:59.563Z,4.08
2022-09-24T03:20:00.723Z,4.08
2022-09-24T03:24:03.414Z,4.08
2022-09-24T03:26:04.925Z,4.08
2022-09-24T03:30:07.736Z,4.08
2022-09-24T03:32:09.584Z,4.08
2022-09-24T03:34:10.581Z,4.08
2022-09-24T03:36:12.136Z,4.08
2022-09-24T03:38:13.271Z,4.08
2022-09-24T03:40:15.217Z,4.08
2022-09-24T03:42:16.504Z,4.08
2022-09-24T03:44:18.277Z,4.08
2022-09-24T03:46:19.779Z,4.08
2022-09-24T03:50:22.795Z,4.08
2022-09-24T03:52:24.669Z,4.08
2022-09-24T03:54:26.111Z,4.08
2022-09-24T03:56:27.742Z,4.08
2022-09-24T04:00:31.304Z,4.08
2022-09-24T04:02:33.001Z,4.08
2022-09-24T04:06:35.289Z,4.08
2022-09-24T04:08:36.737Z,4.07
2022-09-24T04:10:38.178Z,4.08
2022-09-24T04:12:39.887Z,4.08
2022-09-24T04:16:42.219Z,4.08
2022-09-24T04:18:43.717Z,4.07
2022-09-24T04:20:45.555Z,4.07
2022-09-24T04:22:47.112Z,4.07
2022-09-24T04:24:48.800Z,4.07
2022-09-24T04:26:49.818Z,4.07
2022-09-24T04:28:51.229Z,4.07
2022-09-24T04:32:53.867Z,4.07
2022-09-24T04:34:55.826Z,4.07
2022-09-24T04:36:57.400Z,4.07
2022-09-24T04:38:58.967Z,4.07
2022-09-24T04:43:01.387Z,4.07
2022-09-24T04:45:03.068Z,4.07
2022-09-24T04:47:04.858Z,4.07
2022-09-24T04:49:06.058Z,4.07
2022-09-24T04:51:07.914Z,4.07
2022-09-24T04:53:09.559Z,4.07
2022-09-24T04:55:11.178Z,4.07
2022-09-24T04:59:14.319Z,4.06
2022-09-24T05:01:15.874Z,4.06
2022-09-24T05:05:18.984Z,4.06
2022-09-24T05:07:20.807Z,4.06
2022-09-24T05:09:22.160Z,4.06
2022-09-24T05:11:23.974Z,4.06
2022-09-24T05:15:26.079Z,4.06
2022-09-24T05:17:27.294Z,4.06
2022-09-24T05:19:28.298Z,4.06
2022-09-24T05:21:30.092Z,4.06
2022-09-24T05:23:31.696Z,4.06
2022-09-24T05:25:32.937Z,4.06
2022-09-24T05:27:34.223Z,4.06
2022-09-24T05:31:37.154Z,4.06
2022-09-24T05:33:38.598Z,4.06
2022-09-24T05:35:40.216Z,4.06
2022-09-24T05:37:41.417Z,4.06
2022-09-24T05:41:44.289Z,4.06
2022-09-24T05:43:45.725Z,4.06
2022-09-24T05:45:47.018Z,4.06
2022-09-24T05:47:48.661Z,4.06
2022-09-24T05:49:50.530Z,4.06
2022-09-24T05:51:52.410Z,4.06
2022-09-24T05:53:53.441Z,4.06
2022-09-24T05:57:56.186Z,4.06
2022-09-24T05:59:57.892Z,4.06
2022-09-24T06:01:58.963Z,4.06
2022-09-24T06:04:03.550Z,4.06
2022-09-24T06:06:01.582Z,4.06
2022-09-24T06:08:02.641Z,4.06
2022-09-24T06:10:04.131Z,4.08
2022-09-24T06:14:07.772Z,4.09
2022-09-24T06:16:09.498Z,4.09
2022-09-24T06:18:11.057Z,4.08
2022-09-24T06:20:12.802Z,4.08
2022-09-24T06:24:15.508Z,4.07
2022-09-24T06:26:16.535Z,4.07
2022-09-24T06:30:19.767Z,4.07
2022-09-24T06:32:21.641Z,4.07
2022-09-24T06:34:23.258Z,4.07
2022-09-24T06:36:25.062Z,4.06
2022-09-24T06:40:30.304Z,4.08
2022-09-24T06:42:29.213Z,4.11
2022-09-24T06:44:30.347Z,4.12
2022-09-24T06:46:31.972Z,4.12
2022-09-24T06:48:33.113Z,4.12
2022-09-24T06:50:34.874Z,4.13
2022-09-24T06:52:36.079Z,4.13
2022-09-24T06:54:37.875Z,4.13
2022-09-24T06:56:38.880Z,4.14
2022-09-24T06:58:40.055Z,4.12
2022-09-24T07:00:41.283Z,4.12
2022-09-24T07:02:42.492Z,4.12
2022-09-24T07:06:45.172Z,4.12
2022-09-24T07:08:46.986Z,4.12
2022-09-24T07:12:50.220Z,4.12
2022-09-24T07:14:51.557Z,4.12
2022-09-24T07:16:53.105Z,4.12
2022-09-24T07:18:54.405Z,4.12
2022-09-24T07:20:55.560Z,4.12
2022-09-24T07:24:59.131Z,4.12
2022-09-24T07:27:00.812Z,4.14
2022-09-24T07:29:02.486Z,4.16
2022-09-24T07:31:03.495Z,4.16
2022-09-24T07:33:05.091Z,4.16
2022-09-24T07:35:06.426Z,4.16
2022-09-24T07:39:09.751Z,4.17
2022-09-24T07:41:11.353Z,4.17
2022-09-24T07:43:12.648Z,4.17
2022-09-24T07:45:14.075Z,4.17
2022-09-24T07:49:16.413Z,4.18
2022-09-24T07:51:18.068Z,4.18
2022-09-24T07:53:19.635Z,4.18
2022-09-24T07:55:21.028Z,4.18
2022-09-24T07:59:23.671Z,4.19
2022-09-24T08:01:25.154Z,4.19
2022-09-24T08:05:27.589Z,4.19
2022-09-24T08:07:28.771Z,4.19
2022-09-24T08:11:31.261Z,4.19
2022-09-24T08:13:32.852Z,4.19
2022-09-24T08:15:35.000Z,4.19
2022-09-24T08:17:36.474Z,4.19
2022-09-24T08:21:39.531Z,4.19
2022-09-24T08:23:40.527Z,4.2
2022-09-24T08:25:42.279Z,4.19
2022-09-24T08:27:43.704Z,4.2
2022-09-24T08:31:47.790Z,4.2
2022-09-24T08:33:48.660Z,4.2
2022-09-24T08:35:50.475Z,4.2
2022-09-24T08:37:52.250Z,4.2
2022-09-24T08:39:53.976Z,4.2
2022-09-24T08:41:55.265Z,4.2
2022-09-24T08:43:56.963Z,4.2
2022-09-24T08:45:58.271Z,4.2
2022-09-24T08:50:00.128Z,4.2
2022-09-24T08:52:01.930Z,4.2
2022-09-24T08:54:03.866Z,4.2
2022-09-24T08:56:05.005Z,4.2
2022-09-24T08:58:06.648Z,4.2
2022-09-24T09:00:08.284Z,4.2
2022-09-24T09:04:11.338Z,4.21
2022-09-24T09:06:12.664Z,4.19
2022-09-24T09:08:34.163Z,4.19
2022-09-24T09:10:14.777Z,4.19
2022-09-24T09:12:16.210Z,4.19
2022-09-24T09:14:17.917Z,4.19
2022-09-24T09:18:20.560Z,4.19
2022-09-24T09:20:21.633Z,4.19
2022-09-24T09:22:22.914Z,4.19
2022-09-24T09:24:24.045Z,4.19
2022-09-24T09:25:24.927Z,4.19
2022-09-24T09:27:26.028Z,4.19
2022-09-24T09:31:28.834Z,4.19
2022-09-24T09:33:30.079Z,4.18
2022-09-24T09:35:31.649Z,4.19
2022-09-24T09:39:34.488Z,4.18
2022-09-24T09:41:35.852Z,4.18
2022-09-24T09:43:37.021Z,4.18
2022-09-24T09:47:39.522Z,4.18
2022-09-24T09:49:40.669Z,4.18
2022-09-24T09:51:41.813Z,4.18
2022-09-24T09:55:44.699Z,4.18
2022-09-24T09:57:46.154Z,4.18
2022-09-24T09:59:47.315Z,4.18
2022-09-24T10:01:48.305Z,4.18
2022-09-24T10:03:49.894Z,4.18
2022-09-24T10:05:51.427Z,4.18
2022-09-24T10:07:53.085Z,4.18
2022-09-24T10:09:54.604Z,4.17
2022-09-24T10:11:55.989Z,4.18
2022-09-24T10:13:57.692Z,4.17
2022-09-24T10:15:59.353Z,4.18
2022-09-24T10:18:01.070Z,4.17
2022-09-24T10:20:01.909Z,4.17
2022-09-24T10:22:02.876Z,4.17
2022-09-24T10:24:03.917Z,4.17
2022-09-24T10:26:04.924Z,4.17
2022-09-24T10:30:07.349Z,4.17
2022-09-24T10:32:09.087Z,4.17
2022-09-24T10:34:10.391Z,4.17
2022-09-24T10:38:12.638Z,4.17
2022-09-24T10:40:14.194Z,4.17
2022-09-24T10:42:14.877Z,4.17
2022-09-24T10:44:15.791Z,4.17
2022-09-24T10:46:17.135Z,4.17
2022-09-24T10:48:18.010Z,4.17
2022-09-24T10:50:19.130Z,4.17
2022-09-24T10:52:20.927Z,4.17
2022-09-24T10:56:23.692Z,4.17
2022-09-24T10:58:25.184Z,4.17
2022-09-24T11:02:28.486Z,4.17
2022-09-24T11:04:30.546Z,4.17
2022-09-24T11:06:30.999Z,4.17
2022-09-24T11:08:32.062Z,4.17
2022-09-24T11:12:35.510Z,4.17
2022-09-24T11:14:37.024Z,4.17
2022-09-24T11:16:38.146Z,4.17
2022-09-24T11:18:39.400Z,4.17
2022-09-24T11:22:42.388Z,4.17
2022-09-24T11:24:43.674Z,4.17
2022-09-24T11:26:44.678Z,4.17
2022-09-24T11:28:46.022Z,4.16
2022-09-24T11:30:46.923Z,4.16
2022-09-24T11:32:47.750Z,4.16
2022-09-24T11:34:48.739Z,4.16
2022-09-24T11:38:52.222Z,4.16
2022-09-24T11:40:53.277Z,4.16
2022-09-24T11:42:54.504Z,4.16
2022-09-24T11:44:55.358Z,4.17
2022-09-24T11:46:56.347Z,4.16
2022-09-24T11:48:57.513Z,4.16
2022-09-24T11:50:58.847Z,4.16
2022-09-24T11:55:01.784Z,4.16
2022-09-24T11:57:03.389Z,4.16
2022-09-24T11:59:04.950Z,4.16
2022-09-24T12:01:06.469Z,4.16
2022-09-24T12:03:07.896Z,4.16
2022-09-24T12:05:09.433Z,4.16
2022-09-24T12:07:10.705Z,4.16
2022-09-24T12:11:13.932Z,4.16
2022-09-24T12:13:15.722Z,4.16
2022-09-24T12:15:16.767Z,4.16
2022-09-24T12:17:18.056Z,4.16
2022-09-24T12:21:20.768Z,4.16
2022-09-24T12:23:22.060Z,4.16
2022-09-24T12:27:25.257Z,4.16
2022-09-24T12:29:26.899Z,4.16
2022-09-24T12:31:29.575Z,4.15
2022-09-24T12:33:30.589Z,4.16
2022-09-24T12:37:33.923Z,4.16
2022-09-24T12:39:35.266Z,4.15
2022-09-24T12:41:36.937Z,4.16
2022-09-24T12:43:38.613Z,4.15
2022-09-24T12:45:39.569Z,4.15
2022-09-24T12:47:40.835Z,4.15
2022-09-24T12:49:42.405Z,4.15
2022-09-24T12:53:45.177Z,4.15
2022-09-24T12:55:46.623Z,4.16
2022-09-24T12:57:47.722Z,4.15
2022-09-24T12:59:49.305Z,4.15
2022-09-24T13:03:51.250Z,4.15
2022-09-24T13:05:52.152Z,4.15
2022-09-24T13:09:55.733Z,4.15
2022-09-24T13:11:56.709Z,4.15
2022-09-24T13:15:59.503Z,4.15
2022-09-24T13:20:02.143Z,4.15
2022-09-24T13:22:03.446Z,4.14
2022-09-24T13:26:05.326Z,4.14
2022-09-24T13:28:06.636Z,4.15
2022-09-24T13:30:07.918Z,4.15
2022-09-24T13:32:09.634Z,4.14
2022-09-24T13:36:12.885Z,4.14
2022-09-24T13:38:14.344Z,4.14
2022-09-24T13:40:15.281Z,4.14
2022-09-24T13:42:16.373Z,4.14
2022-09-24T13:46:18.802Z,4.14
2022-09-24T13:48:20.589Z,4.14
2022-09-24T13:50:21.464Z,4.14
2022-09-24T13:52:23.001Z,4.14
2022-09-24T13:54:24.437Z,4.14
2022-09-24T13:56:26.170Z,4.14
2022-09-24T13:58:27.754Z,4.14
2022-09-24T14:02:30.189Z,4.14
2022-09-24T14:04:31.439Z,4.14
2022-09-24T14:06:32.426Z,4.14
2022-09-24T14:08:34.032Z,4.14
2022-09-24T14:10:35.040Z,4.14
2022-09-24T14:12:36.063Z,4.14
2022-09-24T14:14:36.935Z,4.14
2022-09-24T14:18:39.616Z,4.15
2022-09-24T14:20:40.923Z,4.16
2022-09-24T14:22:42.299Z,4.15
2022-09-24T14:24:43.312Z,4.15
2022-09-24T14:26:44.286Z,4.16
2022-09-24T14:28:45.878Z,4.16
2022-09-24T14:30:47.157Z,4.16
2022-09-24T14:34:49.242Z,4.16
2022-09-24T14:36:50.860Z,4.16
2022-09-24T14:38:53.675Z,4.16
2022-09-24T14:40:53.615Z,4.16
2022-09-24T14:44:56.723Z,4.16
2022-09-24T14:46:57.913Z,4.16
2022-09-24T14:51:01.045Z,4.16
2022-09-24T14:53:02.707Z,4.16
2022-09-24T14:55:04.045Z,4.16
2022-09-24T14:57:05.796Z,4.16
2022-09-24T15:01:08.788Z,4.16
2022-09-24T15:03:10.414Z,4.16
2022-09-24T15:05:11.721Z,4.15
2022-09-24T15:07:13.448Z,4.15
2022-09-24T15:09:14.667Z,4.16
2022-09-24T15:11:15.793Z,4.15
2022-09-24T15:13:17.595Z,4.15
2022-09-24T15:17:20.385Z,4.15
2022-09-24T15:19:21.768Z,4.15
2022-09-24T15:21:23.530Z,4.15
2022-09-24T15:23:25.026Z,4.15
2022-09-24T15:27:27.282Z,4.15
2022-09-24T15:29:28.648Z,4.15
2022-09-24T15:31:29.708Z,4.15
2022-09-24T15:33:30.561Z,4.15
2022-09-24T15:35:31.567Z,4.15
2022-09-24T15:37:32.499Z,4.14
2022-09-24T15:39:34.120Z,4.14
2022-09-24T15:43:36.428Z,4.15
2022-09-24T15:45:38.051Z,4.14
2022-09-24T15:47:39.689Z,4.14
2022-09-24T15:49:40.889Z,4.14
2022-09-24T15:51:42.161Z,4.14
2022-09-24T15:53:43.830Z,4.14
2022-09-24T15:55:44.741Z,4.14
2022-09-24T15:57:46.299Z,4.14
2022-09-24T16:01:49.188Z,4.14
2022-09-24T16:03:50.011Z,4.14
2022-09-24T16:05:51.584Z,4.14
2022-09-24T16:07:53.346Z,4.14
2022-09-24T16:09:54.396Z,4.14
2022-09-24T16:10:38.179Z,4.14
2022-09-24T16:12:39.117Z,4.14
2022-09-24T16:14:40.955Z,4.14
2022-09-24T16:16:42.437Z,4.14
2022-09-24T16:20:44.919Z,4.14
2022-09-24T16:22:46.745Z,4.14
2022-09-24T16:24:48.558Z,4.14
2022-09-24T16:26:49.989Z,4.14
2022-09-24T16:28:51.581Z,4.14
2022-09-24T16:30:53.354Z,4.14
2022-09-24T16:32:54.559Z,4.14
2022-09-24T16:36:56.614Z,4.14
2022-09-24T16:38:58.058Z,4.14
2022-09-24T16:40:59.676Z,4.14
2022-09-24T16:43:01.196Z,4.14
2022-09-24T16:45:02.547Z,4.13
2022-09-24T16:47:03.441Z,4.13
2022-09-24T16:49:04.435Z,4.13
2022-09-24T16:53:07.136Z,4.14
2022-09-24T16:55:08.986Z,4.14
2022-09-24T16:57:10.139Z,4.13
2022-09-24T16:59:11.719Z,4.13
2022-09-24T17:03:14.311Z,4.13
2022-09-24T17:05:15.497Z,4.13
2022-09-24T17:07:16.526Z,4.13
2022-09-24T17:09:18.428Z,4.13
2022-09-24T17:11:19.302Z,4.13
2022-09-24T17:13:20.732Z,4.13
2022-09-24T17:15:22.607Z,4.13
2022-09-24T17:19:25.197Z,4.13
2022-09-24T17:21:26.139Z,4.13
2022-09-24T17:25:28.531Z,4.13
2022-09-24T17:27:30.237Z,4.13
2022-09-24T17:29:31.579Z,4.13
2022-09-24T17:31:32.985Z,4.13
2022-09-24T17:35:35.946Z,4.12
2022-09-24T17:37:37.208Z,4.13
2022-09-24T17:41:40.855Z,4.13
2022-09-24T17:45:44.178Z,4.13
2022-09-24T17:47:45.357Z,4.12
2022-09-24T17:49:46.793Z,4.12
2022-09-24T17:51:48.594Z,4.12
2022-09-24T17:53:50.334Z,4.12
2022-09-24T17:55:51.462Z,4.12
2022-09-24T17:57:53.225Z,4.12
2022-09-24T18:01:56.510Z,4.12
2022-09-24T18:03:57.721Z,4.12
2022-09-24T18:08:00.332Z,4.12
2022-09-24T18:10:02.061Z,4.12
2022-09-24T18:14:04.127Z,4.12
2022-09-24T18:18:05.945Z,4.12
2022-09-24T18:20:07.150Z,4.12
2022-09-24T18:22:09.019Z,4.12
2022-09-24T18:24:09.939Z,4.12
2022-09-24T18:26:11.138Z,4.12
2022-09-24T18:28:16.455Z,4.12
2022-09-24T18:30:14.547Z,4.12
2022-09-24T18:34:17.591Z,4.12
2022-09-24T18:36:18.958Z,4.12
2022-09-24T18:38:20.551Z,4.12
2022-09-24T18:40:22.358Z,4.12
2022-09-24T18:44:25.186Z,4.12
2022-09-24T18:46:26.512Z,4.12
2022-09-24T18:48:27.751Z,4.12
2022-09-24T18:50:29.166Z,4.12
2022-09-24T18:52:30.976Z,4.12
2022-09-24T18:54:32.425Z,4.12
2022-09-24T18:56:34.181Z,4.12
2022-09-24T19:00:36.421Z,4.11
2022-09-24T19:02:38.374Z,4.12
2022-09-24T19:04:40.126Z,4.11
2022-09-24T19:06:41.246Z,4.11
2022-09-24T19:08:42.523Z,4.11
2022-09-24T19:10:43.937Z,4.11
2022-09-24T19:12:45.211Z,4.11
2022-09-24T19:14:46.343Z,4.11
2022-09-24T19:18:49.201Z,4.11
2022-09-24T19:20:50.128Z,4.11
2022-09-24T19:22:51.655Z,4.11
2022-09-24T19:26:55.217Z,4.11
2022-09-24T19:28:56.919Z,4.11
2022-09-24T19:30:58.166Z,4.11
2022-09-24T19:32:59.585Z,4.11
2022-09-24T19:35:01.370Z,4.11
2022-09-24T19:37:03.239Z,4.11
2022-09-24T19:39:04.877Z,4.11
2022-09-24T19:43:07.536Z,4.11
2022-09-24T19:45:08.715Z,4.11
2022-09-24T19:47:09.874Z,4.1
2022-09-24T19:49:11.097Z,4.11
2022-09-24T19:51:12.710Z,4.1
2022-09-24T19:55:15.175Z,4.1
2022-09-24T19:59:17.880Z,4.11
2022-09-24T20:01:19.462Z,4.1
2022-09-24T20:03:20.763Z,4.1
2022-09-24T20:05:22.493Z,4.1
2022-09-24T20:09:25.994Z,4.1
2022-09-24T20:11:27.700Z,4.1
2022-09-24T20:15:30.644Z,4.1
2022-09-24T20:17:31.757Z,4.1
2022-09-24T20:19:33.508Z,4.1
2022-09-24T20:21:35.515Z,4.1
2022-09-24T20:25:37.978Z,4.1
2022-09-24T20:27:39.702Z,4.1
2022-09-24T20:29:40.784Z,4.1
2022-09-24T20:31:42.027Z,4.1
2022-09-24T20:33:43.032Z,4.1
2022-09-24T20:37:46.398Z,4.1
2022-09-24T20:41:48.799Z,4.1
2022-09-24T20:43:50.357Z,4.1
2022-09-24T20:45:52.014Z,4.1
2022-09-24T20:47:53.297Z,4.1
2022-09-24T20:49:54.313Z,4.1
2022-09-24T20:51:57.222Z,4.1
2022-09-24T20:53:57.026Z,4.09
2022-09-24T20:55:58.510Z,4.1
2022-09-24T20:57:59.770Z,4.1
2022-09-24T21:00:00.842Z,4.1
2022-09-24T21:02:02.068Z,4.1
2022-09-24T21:04:03.629Z,4.1
2022-09-24T21:08:08.631Z,4.09
2022-09-24T21:10:06.767Z,4.09
2022-09-24T21:12:08.591Z,4.09
2022-09-24T21:14:10.445Z,4.09
2022-09-24T21:16:12.449Z,4.09
2022-09-24T21:18:22.551Z,4.09
2022-09-24T21:20:15.086Z,4.09
2022-09-24T21:24:17.761Z,4.09
2022-09-24T21:26:19.049Z,4.09
2022-09-24T21:28:20.920Z,4.09
2022-09-24T21:30:22.553Z,4.09
2022-09-24T21:32:23.794Z,4.09
2022-09-24T21:34:25.333Z,4.09
2022-09-24T21:36:27.130Z,4.09
2022-09-24T21:40:30.780Z,4.09
2022-09-24T21:42:31.839Z,4.09
2022-09-24T21:44:33.275Z,4.09
2022-09-24T21:46:34.987Z,4.09
2022-09-24T21:50:40.267Z,4.08
2022-09-24T21:52:39.392Z,4.08
2022-09-24T21:54:41.137Z,4.09
2022-09-24T21:56:42.266Z,4.08
2022-09-24T21:58:43.225Z,4.09
2022-09-24T22:00:44.877Z,4.09
2022-09-24T22:02:46.602Z,4.08
2022-09-24T22:06:49.147Z,4.08
2022-09-24T22:08:50.812Z,4.08
2022-09-24T22:10:51.838Z,4.08
2022-09-24T22:12:53.035Z,4.08
2022-09-24T22:14:54.840Z,4.08
2022-09-24T22:16:56.132Z,4.08
2022-09-24T22:18:57.030Z,4.08
2022-09-24T22:23:00.143Z,4.08
2022-09-24T22:25:01.551Z,4.08
2022-09-24T22:27:03.225Z,4.08
2022-09-24T22:29:05.125Z,4.08
2022-09-24T22:33:07.670Z,4.08
2022-09-24T22:35:09.555Z,4.08
2022-09-24T22:39:12.245Z,4.08
2022-09-24T22:41:13.926Z,4.08
2022-09-24T22:43:15.064Z,4.08
2022-09-24T22:45:16.039Z,4.08
2022-09-24T22:49:18.603Z,4.08
2022-09-24T22:51:19.811Z,4.08
2022-09-24T22:53:20.786Z,4.08
2022-09-24T22:55:22.336Z,4.08
2022-09-24T22:56:06.117Z,4.08
2022-09-24T23:00:09.391Z,4.08
2022-09-24T23:02:13.274Z,4.08
2022-09-24T23:04:12.921Z,4.08
2022-09-24T23:06:14.255Z,4.08
2022-09-24T23:10:16.757Z,4.08
2022-09-24T23:12:18.421Z,4.07
2022-09-24T23:14:19.480Z,4.08
2022-09-24T23:16:20.511Z,4.08
2022-09-24T23:18:21.507Z,4.07
2022-09-24T23:20:22.954Z,4.08
2022-09-24T23:22:24.781Z,4.07
2022-09-24T23:26:27.749Z,4.08
2022-09-24T23:28:28.887Z,4.07
2022-09-24T23:30:30.272Z,4.07
2022-09-24T23:32:32.009Z,4.07
2022-09-24T23:34:33.182Z,4.07
2022-09-24T23:36:34.772Z,4.07
2022-09-24T23:38:36.531Z,4.07
2022-09-24T23:42:38.489Z,4.07
2022-09-24T23:44:39.777Z,4.07
2022-09-24T23:46:41.168Z,4.07
2022-09-24T23:48:42.307Z,4.07
2022-09-24T23:50:43.575Z,4.07
2022-09-24T23:52:45.312Z,4.07
2022-09-24T23:54:47.099Z,4.07
2022-09-24T23:58:49.893Z,4.07
